Time;durP1;ratioP1;P1;durP2;ratioP2;P2;SDS_P1;SDS_P2;PMS_P1;PMS_P2;Temp;Humidity;BMP_temperature;BMP_pressure;BME280_temperature;BME280_humidity;BME280_pressure;Samples;Min_cycle;Max_cycle;Signal;HPM_P1;HPM_P2
2021/04/06 00:01:15;;;;;;;4.20;2.05;;;;;;;4.00;65.43;99071.41;5038137;28;20382;-86
2021/04/06 00:03:42;;;;;;;6.70;1.95;;;;;;;4.01;64.92;99069.66;5036691;28;20045;-85
2021/04/06 00:06:09;;;;;;;7.65;2.00;;;;;;;3.99;65.45;99064.53;5037892;28;20056;-85
2021/04/06 00:08:35;;;;;;;6.78;2.05;;;;;;;3.98;65.46;99073.25;5038182;28;20486;-86
2021/04/06 00:11:05;;;;;;;6.05;2.33;;;;;;;3.98;65.93;99080.22;5038013;28;20498;-85
2021/04/06 00:13:34;;;;;;;13.40;2.60;;;;;;;3.98;65.89;99085.41;5056180;28;20095;-85
2021/04/06 00:16:03;;;;;;;9.15;2.38;;;;;;;3.99;65.86;99085.34;5055402;28;20053;-85
2021/04/06 00:18:32;;;;;;;5.47;2.70;;;;;;;3.99;66.25;99087.09;5037911;28;20060;-85
2021/04/06 00:21:00;;;;;;;7.03;2.03;;;;;;;3.99;66.14;99092.31;5038045;28;20045;-85
2021/04/06 00:23:30;;;;;;;5.68;1.88;;;;;;;3.98;66.45;99096.69;5037839;28;20053;-85
2021/04/06 00:25:58;;;;;;;3.72;1.48;;;;;;;3.98;66.41;99095.84;5037634;28;20558;-85
2021/04/06 00:28:29;;;;;;;16.13;2.78;;;;;;;3.96;66.17;99103.69;5037521;28;20120;-85
2021/04/06 00:30:56;;;;;;;6.95;1.55;;;;;;;3.96;66.38;99106.31;5037828;28;20052;-86
2021/04/06 00:33:35;;;;;;;4.63;1.77;;;;;;;3.94;66.00;99105.53;5037792;28;20049;-85
2021/04/06 00:36:03;;;;;;;2.55;1.33;;;;;;;3.96;66.47;99108.91;5055152;28;20052;-85
2021/04/06 00:38:33;;;;;;;5.60;1.67;;;;;;;3.95;66.69;99108.97;5037695;28;20132;-85
2021/04/06 00:41:04;;;;;;;4.95;1.30;;;;;;;3.95;66.55;99112.44;5037805;28;20452;-85
2021/04/06 00:43:36;;;;;;;4.40;1.38;;;;;;;3.94;66.77;99115.94;5055014;28;20052;-85
2021/04/06 00:46:05;;;;;;;3.35;1.30;;;;;;;3.94;66.70;99110.75;5037147;28;20432;-85
2021/04/06 00:48:33;;;;;;;5.45;1.70;;;;;;;3.93;66.99;99109.06;5054829;28;20075;-85
2021/04/06 00:51:14;;;;;;;5.63;1.17;;;;;;;3.88;66.96;99116.19;5037298;28;20048;-85
2021/04/06 00:53:56;;;;;;;3.05;1.05;;;;;;;3.87;66.27;99119.69;5037200;28;20041;-82
2021/04/06 00:56:24;;;;;;;4.68;1.60;;;;;;;3.88;67.05;99111.81;5036767;28;20498;-85
2021/04/06 00:58:56;;;;;;;6.63;1.00;;;;;;;3.86;67.08;99116.25;5037204;28;20053;-85
2021/04/06 01:01:29;;;;;;;6.82;1.13;;;;;;;3.84;66.57;99109.41;5037074;28;20122;-85
2021/04/06 01:03:57;;;;;;;;;;;;;;;3.84;65.85;99114.59;5054884;28;20045;-85
2021/04/06 01:06:23;;;;;;;5.30;1.15;;;;;;;3.84;67.25;99130.22;5054750;28;19921;-85
2021/04/06 01:08:51;;;;;;;9.93;1.45;;;;;;;3.79;66.96;99127.81;5037075;28;20057;-85
2021/04/06 01:11:17;;;;;;;5.25;1.40;;;;;;;3.74;66.68;99119.34;5036703;28;20061;-84
2021/04/06 01:13:44;;;;;;;1.63;0.75;;;;;;;3.71;66.86;99120.31;5054167;28;20056;-85
2021/04/06 01:16:11;;;;;;;3.30;0.90;;;;;;;3.66;67.00;99124.81;5036452;28;20048;-85
2021/04/06 01:18:37;;;;;;;5.03;1.00;;;;;;;3.62;67.11;99124.09;5054283;28;20464;-85
2021/04/06 01:21:09;;;;;;;2.42;0.90;;;;;;;3.57;66.71;99128.66;5036386;28;20064;-85
2021/04/06 01:23:38;;;;;;;4.20;1.00;;;;;;;3.55;67.12;99130.44;5036806;28;20046;-84
2021/04/06 01:26:12;;;;;;;2.67;0.98;;;;;;;3.50;67.23;99143.66;5036038;28;20102;-85
2021/04/06 01:28:39;;;;;;;6.43;1.42;;;;;;;3.51;67.62;99144.47;5036499;28;20056;-85
2021/04/06 01:31:07;;;;;;;5.47;1.05;;;;;;;3.49;67.71;99149.75;5036519;28;20095;-85
2021/04/06 01:33:35;;;;;;;5.75;1.10;;;;;;;3.48;67.63;99148.03;5036126;28;20497;-83
2021/04/06 01:36:07;;;;;;;6.15;0.95;;;;;;;3.47;67.93;99151.56;5036160;28;20053;-85
2021/04/06 01:38:38;;;;;;;4.97;0.90;;;;;;;3.48;68.27;99153.25;5053688;28;20052;-85
2021/04/06 01:41:04;;;;;;;3.40;0.98;;;;;;;3.47;67.86;99148.97;5053668;28;20103;-85
2021/04/06 01:43:32;;;;;;;3.50;0.90;;;;;;;3.48;68.28;99150.66;5053798;28;20049;-85
2021/04/06 01:46:17;;;;;;;6.97;1.20;;;;;;;3.47;67.64;99164.56;5036399;28;20048;-85
2021/04/06 01:48:45;;;;;;;2.08;0.90;;;;;;;3.51;68.52;99152.28;5036098;28;20060;-84
2021/04/06 01:51:19;;;;;;;3.60;1.30;;;;;;;3.52;68.41;99156.59;5053954;28;20057;-85
2021/04/06 01:53:45;;;;;;;2.72;0.93;;;;;;;3.54;68.37;99154.78;5036234;28;20053;-84
2021/04/06 01:56:15;;;;;;;5.05;1.08;;;;;;;3.55;68.66;99150.44;5053625;28;20088;-84
2021/04/06 01:58:48;;;;;;;2.58;0.90;;;;;;;3.54;68.38;99154.78;5036223;28;20052;-85
2021/04/06 02:01:23;;;;;;;3.13;0.70;;;;;;;3.56;68.52;99144.31;5053897;28;20045;-84
2021/04/06 02:04:01;;;;;;;3.35;0.63;;;;;;;3.54;68.51;99148.75;5035878;28;20044;-84
2021/04/06 02:06:30;;;;;;;1.63;0.77;;;;;;;3.53;68.37;99150.50;5053951;28;20132;-85
2021/04/06 02:08:57;;;;;;;1.00;0.68;;;;;;;3.53;68.91;99158.28;5036362;28;20091;-85
2021/04/06 02:11:30;;;;;;;1.38;0.65;;;;;;;3.52;68.40;99149.63;5036511;28;20064;-85
2021/04/06 02:14:12;;;;;;;1.60;0.60;;;;;;;3.50;68.57;99138.44;5035820;28;20099;-85
2021/04/06 02:17:04;;;;;;;0.85;0.50;;;;;;;3.50;68.61;99137.59;5054330;28;20472;-85
2021/04/06 02:19:37;;;;;;;0.47;0.47;;;;;;;3.51;68.60;99147.06;5053497;28;20094;-84
2021/04/06 02:22:15;;;;;;;0.90;0.75;;;;;;;3.47;68.34;99153.31;5034614;28;20072;-84
2021/04/06 02:24:46;;;;;;;2.80;1.15;;;;;;;3.47;68.56;99156.75;5053366;28;20444;-85
2021/04/06 02:27:21;;;;;;;2.08;0.90;;;;;;;3.43;68.46;99157.78;5036340;28;20128;-86
2021/04/06 02:29:53;;;;;;;4.63;1.30;;;;;;;3.44;68.79;99141.25;5058671;28;20048;-86
2021/04/06 02:32:23;;;;;;;1.95;1.00;;;;;;;3.43;68.69;99138.75;5059646;28;20106;-85
2021/04/06 02:34:52;;;;;;;1.05;0.90;;;;;;;3.43;68.98;99149.16;5057769;28;20489;-85
2021/04/06 02:37:25;;;;;;;2.22;0.90;;;;;;;3.44;68.81;99153.44;5057655;28;20056;-85
2021/04/06 02:39:55;;;;;;;1.67;0.90;;;;;;;3.43;69.14;99157.78;5039804;28;20049;-85
2021/04/06 02:42:33;;;;;;;1.98;1.00;;;;;;;3.43;69.33;99156.94;5040293;28;20491;-85
2021/04/06 02:45:06;;;;;;;4.78;1.52;;;;;;;3.44;69.27;99158.66;5039706;28;20131;-84
2021/04/06 02:47:39;;;;;;;4.47;1.10;;;;;;;3.44;69.57;99151.66;5040477;28;20131;-84
2021/04/06 02:50:07;;;;;;;1.85;0.93;;;;;;;3.46;69.96;99154.22;5040018;28;20049;-85
2021/04/06 02:52:36;;;;;;;3.67;1.00;;;;;;;3.47;69.32;99172.38;5058006;28;20056;-86
2021/04/06 02:55:05;;;;;;;4.05;1.30;;;;;;;3.48;69.81;99187.06;5040157;28;20098;-85
2021/04/06 02:57:31;;;;;;;3.65;1.10;;;;;;;3.50;69.60;99179.22;5039810;28;20056;-85
2021/04/06 02:59:57;;;;;;;3.10;1.00;;;;;;;3.52;69.88;99185.22;5058061;28;20053;-85
2021/04/06 03:02:23;;;;;;;1.80;1.00;;;;;;;3.51;69.50;99184.38;5040205;28;20052;-85
2021/04/06 03:04:50;;;;;;;2.95;1.27;;;;;;;3.52;69.61;99187.84;5057341;28;20056;-85
2021/04/06 03:07:20;;;;;;;3.45;1.50;;;;;;;3.50;69.51;99187.88;5039589;28;20062;-85
2021/04/06 03:09:55;;;;;;;2.65;1.15;;;;;;;3.47;68.99;99185.38;5039626;28;20064;-85
2021/04/06 03:12:27;;;;;;;2.40;1.20;;;;;;;3.46;69.74;99181.09;5039804;28;20049;-85
2021/04/06 03:14:53;;;;;;;1.63;1.15;;;;;;;3.48;69.85;99175.84;5039329;28;20045;-85
2021/04/06 03:17:20;;;;;;;2.35;1.30;;;;;;;3.48;69.82;99176.66;5057121;28;20098;-85
2021/04/06 03:20:02;;;;;;;3.50;1.40;;;;;;;3.48;69.23;99181.88;5039637;28;20103;-85
2021/04/06 03:22:28;;;;;;;2.22;1.10;;;;;;;3.52;69.81;99182.63;5057149;28;20045;-84
2021/04/06 03:24:55;;;;;;;2.70;1.20;;;;;;;3.52;70.05;99172.22;5038973;28;20044;-85
2021/04/06 03:27:30;;;;;;;2.10;1.55;;;;;;;3.50;69.47;99180.06;5039520;28;20053;-85
2021/04/06 03:29:57;;;;;;;4.55;1.90;;;;;;;3.54;69.59;99177.38;5057169;28;20052;-85
2021/04/06 03:32:24;;;;;;;2.28;1.52;;;;;;;3.54;69.58;99179.97;5038939;28;20056;-84
2021/04/06 03:34:52;;;;;;;3.90;1.60;;;;;;;3.54;69.31;99178.19;5039044;28;20045;-85
2021/04/06 03:37:21;;;;;;;2.13;1.20;;;;;;;3.55;69.60;99189.47;5038761;28;20060;-83
2021/04/06 03:39:47;;;;;;;3.42;1.00;;;;;;;3.56;69.70;99185.94;5055928;28;20053;-83
2021/04/06 03:42:22;;;;;;;3.45;0.85;;;;;;;3.53;69.17;99189.53;5056234;28;20102;-83
2021/04/06 03:44:48;;;;;;;2.75;1.02;;;;;;;3.57;69.67;99192.84;5055904;28;20079;-83
2021/04/06 03:47:14;;;;;;;2.20;0.93;;;;;;;3.55;69.48;99192.91;5055958;28;20049;-83
2021/04/06 03:49:48;;;;;;;3.78;1.02;;;;;;;3.55;69.06;99187.69;5055963;28;20468;-83
2021/04/06 03:52:14;;;;;;;2.83;0.88;;;;;;;3.57;69.39;99183.31;5055863;28;20052;-83
2021/04/06 03:54:44;;;;;;;1.25;0.90;;;;;;;3.58;69.79;99186.72;5055921;28;20041;-83
2021/04/06 04:00:07;;;;;;;3.00;0.88;;;;;;;3.61;69.41;99171.00;5101881;28;20048;-81
2021/04/06 04:02:34;;;;;;;4.28;1.35;;;;;;;3.63;69.78;99166.59;5103864;28;20056;-81
2021/04/06 04:05:01;;;;;;;5.35;1.33;;;;;;;3.62;69.61;99163.16;5101872;28;20085;-81
2021/04/06 04:07:27;;;;;;;2.45;0.95;;;;;;;3.63;69.70;99159.63;5103823;28;20044;-81
2021/04/06 04:09:53;;;;;;;6.30;2.30;;;;;;;3.64;69.15;99163.94;5085338;28;20048;-81
2021/04/06 04:12:19;;;;;;;3.63;1.92;;;;;;;3.63;69.00;99174.41;5101781;28;20059;-81
2021/04/06 04:14:46;;;;;;;4.78;2.10;;;;;;;3.60;68.94;99167.56;5104482;28;20044;-81
2021/04/06 04:17:12;;;;;;;5.13;1.90;;;;;;;3.58;68.48;99171.13;5103254;28;20048;-81
2021/04/06 04:19:38;;;;;;;4.50;2.35;;;;;;;3.53;69.05;99176.50;5101379;28;20052;-81
2021/04/06 04:22:04;;;;;;;3.85;1.73;;;;;;;3.48;68.67;99168.88;5103394;28;20047;-81
2021/04/06 04:24:31;;;;;;;8.23;2.22;;;;;;;3.45;68.94;99171.59;5087167;28;20416;-81
2021/04/06 04:26:57;;;;;;;6.18;1.63;;;;;;;3.41;68.91;99172.63;5104513;28;20052;-80
2021/04/06 04:29:23;;;;;;;8.90;1.67;;;;;;;3.40;68.76;99170.91;5104236;28;20048;-80
2021/04/06 04:31:50;;;;;;;7.03;2.28;;;;;;;3.37;69.63;99165.81;5104849;28;20058;-81
2021/04/06 04:34:17;;;;;;;7.60;2.75;;;;;;;3.35;69.17;99171.09;5105021;28;20051;-81
2021/04/06 04:36:44;;;;;;;9.55;3.28;;;;;;;3.34;69.31;99168.53;5102963;28;20044;-80
2021/04/06 04:39:11;;;;;;;12.05;3.65;;;;;;;3.32;69.49;99168.59;5086868;28;20048;-80
2021/04/06 04:41:37;;;;;;;12.05;3.28;;;;;;;3.30;70.00;99177.34;5103596;28;20052;-80
2021/04/06 04:44:03;;;;;;;11.77;2.88;;;;;;;3.29;69.90;99170.47;5104035;28;20052;-80
2021/04/06 04:46:29;;;;;;;9.75;2.65;;;;;;;3.26;69.91;99174.84;5104729;28;20056;-80
2021/04/06 04:48:57;;;;;;;7.70;1.98;;;;;;;3.25;69.83;99174.91;5104407;28;20127;-80
2021/04/06 04:51:23;;;;;;;5.70;1.85;;;;;;;3.24;70.01;99176.69;5103698;28;20066;-80
2021/04/06 04:53:50;;;;;;;8.98;2.05;;;;;;;3.23;69.63;99172.38;5086014;28;20073;-80
2021/04/06 04:56:16;;;;;;;10.20;2.33;;;;;;;3.21;70.00;99176.78;5103849;28;20077;-81
2021/04/06 04:58:42;;;;;;;8.57;2.25;;;;;;;3.21;69.70;99173.34;5105242;28;20050;-80
2021/04/06 05:01:10;;;;;;;6.30;1.88;;;;;;;3.19;70.13;99172.53;5104656;28;20051;-81
2021/04/06 05:03:36;;;;;;;7.35;1.90;;;;;;;3.17;69.60;99174.38;5085969;28;20044;-80
2021/04/06 05:06:03;;;;;;;9.82;2.20;;;;;;;3.15;69.71;99181.34;5105216;28;20055;-80
2021/04/06 05:08:29;;;;;;;8.95;2.28;;;;;;;3.15;69.86;99173.56;5102723;28;20446;-80
2021/04/06 05:10:55;;;;;;;11.25;2.17;;;;;;;3.14;70.02;99172.69;5103159;28;20077;-80
2021/04/06 05:13:21;;;;;;;10.50;2.47;;;;;;;3.12;69.93;99184.91;5104420;28;20055;-80
2021/04/06 05:15:47;;;;;;;11.15;2.78;;;;;;;3.13;70.32;99189.22;5102366;28;20051;-80
2021/04/06 05:18:14;;;;;;;9.52;2.13;;;;;;;3.14;70.11;99188.28;5104486;28;20109;-80
2021/04/06 05:20:40;;;;;;;11.98;2.38;;;;;;;3.16;70.39;99194.31;5102953;28;20051;-80
2021/04/06 05:23:06;;;;;;;11.77;2.25;;;;;;;3.17;70.66;99196.00;5103457;28;20047;-80
2021/04/06 05:25:32;;;;;;;12.98;2.28;;;;;;;3.19;70.70;99194.22;5101731;28;20492;-81
2021/04/06 05:27:58;;;;;;;17.80;2.90;;;;;;;3.21;70.98;99183.75;5084316;28;20074;-80
2021/04/06 05:30:24;;;;;;;8.75;2.17;;;;;;;3.24;71.06;99194.88;5104002;28;20149;-81
2021/04/06 05:32:50;;;;;;;7.63;1.80;;;;;;;3.29;70.80;99204.28;5103256;28;20059;-80
2021/04/06 05:35:16;;;;;;;10.18;1.98;;;;;;;3.33;71.57;99198.06;5085512;28;20056;-81
2021/04/06 05:37:42;;;;;;;8.88;1.95;;;;;;;3.38;70.92;99207.41;5103056;28;20058;-80
2021/04/06 05:40:09;;;;;;;8.55;2.10;;;;;;;3.43;71.19;99204.63;5083862;28;20052;-80
2021/04/06 05:42:37;;;;;;;9.48;2.28;;;;;;;3.47;70.82;99206.19;5102708;28;20048;-80
2021/04/06 05:45:05;;;;;;;6.38;2.03;;;;;;;3.51;70.79;99202.59;5083517;28;20048;-81
2021/04/06 05:47:40;;;;;;;7.72;1.45;;;;;;;3.49;70.05;99209.63;5101225;28;20048;-80
2021/04/06 05:50:07;;;;;;;7.75;1.55;;;;;;;3.54;70.74;99196.41;5099976;28;20043;-81
2021/04/06 05:52:34;;;;;;;6.15;1.48;;;;;;;3.55;70.07;99218.94;5098932;28;20439;-80
2021/04/06 05:55:05;;;;;;;9.50;1.77;;;;;;;3.57;70.34;99226.69;5097922;28;20097;-80
2021/04/06 05:57:32;;;;;;;8.68;1.60;;;;;;;3.58;70.62;99203.19;5080988;28;20047;-80
2021/04/06 05:59:58;;;;;;;8.38;1.50;;;;;;;3.60;70.17;99203.16;5097628;28;20044;-81
2021/04/06 06:02:24;;;;;;;15.40;1.90;;;;;;;3.60;70.45;99205.75;5079871;28;20481;-81
2021/04/06 06:04:51;;;;;;;10.20;2.22;;;;;;;3.61;70.02;99207.44;5099502;28;20043;-82
2021/04/06 06:07:17;;;;;;;8.80;2.40;;;;;;;3.60;70.17;99209.22;5098951;28;20055;-82
2021/04/06 06:09:43;;;;;;;15.02;1.92;;;;;;;3.60;70.16;99205.75;5099868;28;20056;-84
2021/04/06 06:12:12;;;;;;;16.25;2.60;;;;;;;3.59;69.74;99206.66;5099359;28;20056;-82
2021/04/06 06:14:45;;;;;;;10.43;2.08;;;;;;;3.58;69.44;99210.16;5079750;28;20048;-82
2021/04/06 06:17:18;;;;;;;;;;;;;;;3.55;68.17;99208.50;5098352;28;20460;-80
2021/04/06 06:19:47;;;;;;;15.90;2.80;;;;;;;3.56;69.01;99206.78;5093348;28;20368;-81
2021/04/06 06:22:20;;;;;;;7.88;1.63;;;;;;;3.52;69.53;99206.88;5076095;28;20055;-80
2021/04/06 06:24:48;;;;;;;11.48;2.22;;;;;;;3.50;69.92;99213.03;5093574;28;20070;-81
2021/04/06 06:27:45;;;;;;;16.35;2.25;;;;;;;3.44;69.20;99215.88;5075574;28;20485;-80
2021/04/06 06:30:32;;;;;;;14.20;3.45;;;;;;;3.43;69.10;99216.81;5092121;28;20055;-80
2021/04/06 06:33:12;;;;;;;9.15;2.38;;;;;;;3.41;68.74;99205.56;5093634;28;20044;-80
2021/04/06 06:35:39;;;;;;;13.05;2.83;;;;;;;3.43;69.71;99219.41;5093700;28;20055;-81
2021/04/06 06:38:17;;;;;;;15.85;2.80;;;;;;;3.39;69.06;99218.63;5093622;28;20077;-80
2021/04/06 06:40:45;;;;;;;10.10;1.85;;;;;;;3.42;69.75;99225.47;5093624;28;20056;-80
2021/04/06 06:43:17;;;;;;;7.72;2.03;;;;;;;3.40;69.21;99215.13;5093441;28;20048;-81
2021/04/06 06:45:45;;;;;;;17.02;2.55;;;;;;;3.43;69.72;99219.41;5093159;28;20484;-81
2021/04/06 06:48:34;;;;;;;10.27;2.33;;;;;;;3.41;68.61;99221.19;5075551;28;20561;-80
2021/04/06 06:51:02;;;;;;;13.50;2.30;;;;;;;3.46;70.07;99229.66;5075223;28;20078;-80
2021/04/06 06:53:41;;;;;;;13.93;2.25;;;;;;;3.43;69.24;99220.22;5093209;28;20044;-80
2021/04/06 06:56:10;;;;;;;13.55;2.47;;;;;;;3.46;70.15;99227.94;5093082;28;20531;-80
2021/04/06 06:58:43;;;;;;;8.15;1.80;;;;;;;3.48;69.51;99227.88;5093425;28;20059;-81
2021/04/06 07:01:24;;;;;;;10.05;2.15;;;;;;;3.51;69.22;99230.34;5075441;28;20063;-80
2021/04/06 07:04:28;;;;;;;14.52;3.13;;;;;;;3.54;68.59;99229.41;5075103;28;20052;-80
2021/04/06 07:06:58;;;;;;;10.73;1.83;;;;;;;3.60;69.81;99234.38;5080777;28;20052;-81
2021/04/06 07:09:29;;;;;;;12.57;2.33;;;;;;;3.63;69.75;99236.88;5075082;28;20064;-81
2021/04/06 07:11:58;;;;;;;16.52;2.53;;;;;;;3.66;69.67;99228.94;5075402;28;20562;-81
2021/04/06 07:14:25;;;;;;;11.80;2.03;;;;;;;3.70;69.99;99224.50;5095615;28;20044;-81
2021/04/06 07:16:54;;;;;;;11.57;2.03;;;;;;;3.73;70.23;99227.81;5096618;28;20048;-81
2021/04/06 07:19:21;;;;;;;17.33;2.78;;;;;;;3.80;70.91;99231.03;5096540;28;20504;-81
2021/04/06 07:21:52;;;;;;;13.15;2.38;;;;;;;3.87;70.91;99222.09;5096892;28;20059;-81
2021/04/06 07:24:39;;;;;;;10.63;1.75;;;;;;;3.96;69.85;99218.28;5096292;28;20098;-81
2021/04/06 07:27:13;;;;;;;7.70;1.33;;;;;;;4.02;69.63;99218.06;5096991;28;20059;-81
2021/04/06 07:29:40;;;;;;;9.52;2.00;;;;;;;4.11;70.62;99223.81;5078515;28;20060;-80
2021/04/06 07:32:11;;;;;;;11.20;2.20;;;;;;;4.14;69.72;99218.47;5096538;28;20134;-81
2021/04/06 07:34:43;;;;;;;14.35;2.38;;;;;;;4.18;69.33;99217.44;5096265;28;20040;-81
2021/04/06 07:37:09;;;;;;;9.30;1.60;;;;;;;4.24;70.07;99217.22;5096602;28;20084;-81
2021/04/06 07:39:37;;;;;;;16.25;2.60;;;;;;;4.30;70.38;99216.97;5096279;28;20493;-81
2021/04/06 07:42:03;;;;;;;17.50;2.80;;;;;;;4.37;70.91;99216.72;5096892;28;20120;-81
2021/04/06 07:44:35;;;;;;;9.88;2.30;;;;;;;4.47;70.32;99218.06;5095929;28;20048;-80
2021/04/06 07:47:01;;;;;;;13.63;2.15;;;;;;;4.59;70.82;99221.91;5096351;28;20052;-80
2021/04/06 07:49:27;;;;;;;9.73;2.05;;;;;;;4.69;70.52;99215.41;5096372;28;20044;-81
2021/04/06 07:52:00;;;;;;;12.85;2.13;;;;;;;4.77;69.43;99217.69;5078500;28;20052;-81
2021/04/06 07:54:48;;;;;;;9.88;2.47;;;;;;;4.87;69.74;99225.13;5096213;28;20135;-81
2021/04/06 07:57:14;;;;;;;15.20;3.08;;;;;;;4.91;69.79;99214.53;5078188;28;20073;-81
2021/04/06 07:59:43;;;;;;;12.50;2.35;;;;;;;4.95;69.73;99220.44;5095968;28;20048;-81
2021/04/06 08:02:10;;;;;;;14.73;2.72;;;;;;;5.01;70.11;99217.56;5078355;28;20084;-81
2021/04/06 08:04:48;;;;;;;13.20;2.10;;;;;;;5.07;68.67;99227.75;5095498;28;20044;-84
2021/04/06 08:07:20;;;;;;;8.10;2.10;;;;;;;5.18;69.12;99219.47;5077753;28;20044;-84
2021/04/06 08:09:48;;;;;;;10.15;2.10;;;;;;;5.30;69.63;99222.44;5077664;28;20044;-83
2021/04/06 08:12:19;;;;;;;11.93;1.80;;;;;;;5.37;68.99;99217.78;5077692;28;20051;-83
2021/04/06 08:14:53;;;;;;;7.65;1.77;;;;;;;5.38;67.04;99225.56;5095357;28;20051;-84
2021/04/06 08:17:30;;;;;;;5.40;1.65;;;;;;;5.35;66.74;99234.38;5095491;28;20101;-84
2021/04/06 08:20:04;;;;;;;6.78;1.73;;;;;;;5.33;66.68;99238.81;5095806;28;20052;-84
2021/04/06 08:22:51;;;;;;;10.32;1.65;;;;;;;5.27;66.14;99233.84;5095542;28;20052;-83
2021/04/06 08:25:23;;;;;;;9.48;1.95;;;;;;;5.27;67.23;99231.25;5093913;28;20044;-84
2021/04/06 08:27:50;;;;;;;6.72;1.65;;;;;;;5.29;68.52;99232.03;5077398;28;20056;-84
2021/04/06 08:30:19;;;;;;;8.20;2.20;;;;;;;5.31;68.60;99224.97;5077592;28;20047;-83
2021/04/06 08:32:57;;;;;;;8.10;1.95;;;;;;;5.31;67.13;99230.19;5095240;28;20052;-84
2021/04/06 08:35:45;;;;;;;7.25;1.42;;;;;;;5.37;66.82;99226.47;5094903;28;20048;-84
2021/04/06 08:38:24;;;;;;;9.80;1.48;;;;;;;5.41;66.80;99225.44;5077304;28;20076;-84
2021/04/06 08:41:05;;;;;;;9.63;2.55;;;;;;;5.47;67.70;99219.09;5077209;28;20062;-84
2021/04/06 08:43:50;;;;;;;12.02;2.13;;;;;;;5.51;67.01;99228.47;5095301;28;20044;-83
2021/04/06 08:46:26;;;;;;;6.55;1.63;;;;;;;5.59;67.49;99228.13;5094828;28;20511;-84
2021/04/06 08:48:55;;;;;;;4.95;1.67;;;;;;;5.68;69.03;99226.88;5094984;28;20066;-84
2021/04/06 08:51:24;;;;;;;6.03;1.80;;;;;;;5.74;69.03;99226.59;5076859;28;20543;-84
2021/04/06 08:54:01;;;;;;;5.13;1.88;;;;;;;5.76;66.60;99234.34;5076761;28;20093;-84
2021/04/06 08:56:31;;;;;;;10.90;2.22;;;;;;;5.78;67.22;99227.28;5077055;28;20055;-84
2021/04/06 08:59:24;;;;;;;8.00;2.42;;;;;;;5.72;64.10;99223.22;5094475;28;20052;-85
2021/04/06 09:01:55;;;;;;;3.70;1.40;;;;;;;5.74;67.18;99231.81;5094719;28;20052;-84
2021/04/06 09:04:34;;;;;;;7.47;1.70;;;;;;;5.73;66.82;99230.97;5094538;28;20074;-84
2021/04/06 09:07:01;;;;;;;7.65;2.13;;;;;;;5.79;68.51;99224.63;5076531;28;20105;-81
2021/04/06 09:09:29;;;;;;;6.90;2.10;;;;;;;5.82;68.31;99224.47;5094633;28;20056;-81
2021/04/06 09:12:00;;;;;;;5.95;2.22;;;;;;;5.83;67.43;99225.34;5094761;28;20048;-81
2021/04/06 09:14:28;;;;;;;9.25;2.38;;;;;;;5.89;68.44;99229.41;5094159;28;20044;-82
2021/04/06 09:16:55;;;;;;;10.48;2.92;;;;;;;5.94;68.62;99222.22;5094582;28;20508;-81
2021/04/06 09:19:23;;;;;;;6.40;2.53;;;;;;;5.98;68.26;99224.63;5094637;28;20051;-81
2021/04/06 09:21:51;;;;;;;8.68;2.10;;;;;;;6.05;68.64;99216.53;5094612;28;20101;-81
2021/04/06 09:24:18;;;;;;;7.70;1.58;;;;;;;6.11;68.88;99219.72;5094854;28;20044;-81
2021/04/06 09:26:46;;;;;;;9.88;2.58;;;;;;;6.20;68.57;99223.63;5094251;28;20386;-81
2021/04/06 09:29:16;;;;;;;13.63;1.90;;;;;;;6.27;68.32;99213.72;5094655;28;20048;-81
2021/04/06 09:31:47;;;;;;;6.28;2.03;;;;;;;6.36;68.76;99209.84;5094656;28;20048;-81
2021/04/06 09:34:15;;;;;;;10.40;2.45;;;;;;;6.47;69.37;99218.00;5094175;28;20449;-81
2021/04/06 09:36:43;;;;;;;7.97;2.13;;;;;;;6.58;68.27;99222.69;5094065;28;20470;-81
2021/04/06 09:39:11;;;;;;;9.15;1.70;;;;;;;6.68;67.97;99217.00;5094198;28;20063;-81
2021/04/06 09:41:41;;;;;;;11.27;1.70;;;;;;;6.73;67.15;99209.81;5094165;28;20048;-81
2021/04/06 09:44:11;;;;;;;8.25;1.92;;;;;;;6.77;66.05;99212.16;5075821;28;20047;-81
2021/04/06 09:46:47;;;;;;;7.13;2.30;;;;;;;6.76;64.23;99202.63;5075987;28;20059;-82
2021/04/06 09:49:15;;;;;;;10.02;1.95;;;;;;;6.79;66.36;99206.88;5076321;28;20048;-82
2021/04/06 09:51:57;;;;;;;10.00;2.15;;;;;;;6.80;66.42;99199.88;5078568;28;20048;-81
2021/04/06 09:54:32;;;;;;;9.65;1.52;;;;;;;6.73;64.30;99199.34;5075600;28;20048;-81
2021/04/06 09:59:29;;;;;;;6.38;1.85;;;;;;;6.69;65.87;99203.03;4993539;28;20054;-83
2021/04/06 10:01:58;;;;;;;4.35;1.30;;;;;;;6.63;64.67;99205.03;4994612;28;20553;-83
2021/04/06 10:04:39;;;;;;;6.07;2.03;;;;;;;6.57;63.00;99199.22;4994281;28;20042;-83
2021/04/06 10:07:17;;;;;;;9.88;1.70;;;;;;;6.53;63.87;99197.72;4976921;28;20109;-83
2021/04/06 10:09:58;;;;;;;7.95;1.80;;;;;;;6.54;65.26;99194.19;4977131;28;20053;-83
2021/04/06 10:12:27;;;;;;;7.53;1.67;;;;;;;6.60;67.22;99189.47;4977353;28;20054;-83
2021/04/06 10:14:54;;;;;;;7.40;1.77;;;;;;;6.68;67.92;99175.16;4994052;28;20495;-83
2021/04/06 10:17:34;;;;;;;10.02;1.60;;;;;;;6.77;64.87;99170.31;4994205;28;20046;-82
2021/04/06 10:20:07;;;;;;;8.20;1.60;;;;;;;6.96;66.66;99168.53;4994438;28;20050;-83
2021/04/06 10:22:43;;;;;;;7.75;1.70;;;;;;;7.11;65.12;99167.72;4994245;28;20430;-83
2021/04/06 10:25:11;;;;;;;7.57;1.40;;;;;;;7.28;66.92;99163.38;4993749;28;20046;-83
2021/04/06 10:27:44;;;;;;;7.38;2.13;;;;;;;7.38;66.14;99164.59;4994298;28;20058;-81
2021/04/06 10:30:13;;;;;;;5.78;1.55;;;;;;;7.49;66.19;99163.16;4993942;28;20495;-81
2021/04/06 10:32:43;;;;;;;8.68;1.70;;;;;;;7.53;65.75;99165.56;4994240;28;20054;-81
2021/04/06 10:35:11;;;;;;;8.63;2.13;;;;;;;7.56;65.49;99167.16;4976810;28;20046;-82
2021/04/06 10:37:40;;;;;;;7.20;1.48;;;;;;;7.52;64.47;99169.06;4994137;28;20057;-81
2021/04/06 10:40:34;;;;;;;4.50;1.50;;;;;;;7.43;62.05;99159.97;4994090;28;20104;-81
2021/04/06 10:43:19;;;;;;;6.88;1.50;;;;;;;7.37;63.18;99160.25;4993987;28;20466;-81
2021/04/06 10:45:48;;;;;;;4.38;1.60;;;;;;;7.34;64.47;99156.97;4993885;28;20104;-81
2021/04/06 10:48:21;;;;;;;3.55;1.35;;;;;;;7.27;63.07;99156.47;4994687;28;20411;-82
2021/04/06 10:50:57;;;;;;;3.25;1.00;;;;;;;7.19;62.88;99156.00;4998039;28;20042;-80
2021/04/06 10:53:30;;;;;;;3.72;1.20;;;;;;;7.13;63.78;99158.03;4980857;28;20058;-81
2021/04/06 10:56:18;;;;;;;2.63;1.50;;;;;;;7.04;62.69;99148.06;4997654;28;20491;-81
2021/04/06 10:58:48;;;;;;;4.18;1.48;;;;;;;7.07;65.49;99147.91;5011199;28;20065;-81
2021/04/06 11:01:21;;;;;;;6.93;1.88;;;;;;;7.09;65.19;99143.41;5017453;28;20045;-81
2021/04/06 11:03:50;;;;;;;5.82;1.80;;;;;;;7.18;67.38;99131.63;5016804;28;20517;-81
2021/04/06 11:06:25;;;;;;;7.47;2.17;;;;;;;7.35;69.27;99130.72;5017175;28;20510;-81
2021/04/06 11:08:53;;;;;;;4.10;1.45;;;;;;;7.61;70.07;99132.84;4999697;28;20490;-83
2021/04/06 11:11:25;;;;;;;5.43;1.75;;;;;;;7.89;69.18;99121.66;5000121;28;20046;-83
2021/04/06 11:14:11;;;;;;;4.75;1.60;;;;;;;8.16;67.39;99125.44;4999585;28;20050;-83
2021/04/06 11:16:39;;;;;;;5.68;1.33;;;;;;;8.37;65.85;99117.28;4999928;28;20073;-83
2021/04/06 11:19:07;;;;;;;9.25;1.77;;;;;;;8.50;65.55;99114.78;5016500;28;20057;-83
2021/04/06 11:21:36;;;;;;;3.03;1.08;;;;;;;8.56;64.51;99110.03;4999542;28;20072;-83
2021/04/06 11:24:03;;;;;;;4.97;1.35;;;;;;;8.62;63.60;99094.84;4999357;28;20472;-83
2021/04/06 11:26:29;;;;;;;8.40;2.25;;;;;;;8.76;66.33;99099.28;4999491;28;20054;-83
2021/04/06 11:28:55;;;;;;;8.15;1.75;;;;;;;8.92;64.81;99089.56;4998929;28;20049;-84
2021/04/06 11:31:22;;;;;;;8.18;1.80;;;;;;;9.11;65.34;99089.28;4999343;28;20054;-84
2021/04/06 11:33:48;;;;;;;4.82;1.52;;;;;;;9.23;64.08;99087.66;4998788;28;20042;-84
2021/04/06 11:36:15;;;;;;;5.18;1.80;;;;;;;9.19;60.72;99098.47;4999158;28;20050;-84
2021/04/06 11:38:42;;;;;;;5.97;1.60;;;;;;;9.17;63.15;99089.81;5016420;28;20050;-84
2021/04/06 11:41:16;;;;;;;3.53;1.40;;;;;;;9.09;63.59;99087.69;5016499;28;20143;-85
2021/04/06 11:43:42;;;;;;;3.20;1.27;;;;;;;9.08;64.07;99086.00;5016137;28;20078;-84
2021/04/06 11:46:08;;;;;;;7.85;1.63;;;;;;;9.04;63.61;99082.69;5016282;28;20058;-85
2021/04/06 11:48:35;;;;;;;7.07;1.77;;;;;;;8.96;61.97;99096.31;5016408;28;20049;-84
2021/04/06 11:51:01;;;;;;;6.85;1.42;;;;;;;8.84;61.74;99097.91;5016284;28;20053;-84
2021/04/06 11:53:28;;;;;;;3.60;1.17;;;;;;;8.67;61.42;99106.78;4999314;28;20053;-85
2021/04/06 11:55:54;;;;;;;4.95;1.08;;;;;;;8.50;61.26;99109.53;5016084;28;20441;-84
2021/04/06 11:58:20;;;;;;;2.65;1.05;;;;;;;8.28;61.94;99114.25;5005964;28;20049;-85
2021/04/06 12:00:46;;;;;;;4.07;1.10;;;;;;;8.10;62.92;99103.03;5014962;28;20046;-85
2021/04/06 12:03:13;;;;;;;3.92;1.30;;;;;;;7.98;63.42;99109.84;5015014;28;20046;-85